Kelibia, Tunisia
Current Conditions -  °F | °C
As of 12:00 AM on Friday 19 Dec 2014 (Local Time) from DTTL Reporting Station
Clear Clear  
Wind Chill: 52°   Ceiling: Unl
Heat Index: 52°   Visibility: NA
Dew Point: 52°   Wind: 2mph
Humidity: 100%   Direction: 310°NW
Pressure: 30.18"   Gusts: NA
Location:  36.85°N, 11.09°E
Report Text: DTTL 182300Z AUTO 31002KT NCD 11/11 Q1022
Loading
Personal Weather Stations






























Interactive Weather Map New forecast layout! Learn more

10-Day Weather Forecast

Advertisements
Track Severe Weather on mobile